Flinders Reef, Australia
Current Conditions -  °F | °C
As of 2:00 AM on Saturday 25 Oct 2014 (Local Time) from YBTL Reporting Station
Scattered Clouds Scattered Clouds  
Wind Chill: 70°   Ceiling: Unl
Heat Index: 70°   Visibility: 6mi
Dew Point: 63°   Wind: 7mph
Humidity: 78%   Direction: 150°SSE
Pressure: 30.06"   Gusts: NA
Location:  17.72°S, 148.43°E
Report Text: YBTL 241600Z AUTO 15006KT 9999 // SCT032 21/17 Q1018
Loading
Personal Weather Stations






























Interactive Weather Map
Tropical Storm Tracking
New forecast layout! Learn more

10-Day Weather Forecast

Advertisements
Track Severe Weather on mobile